createdAt,value
2023-04-12T00:02:34.135Z,7.47
2023-04-12T00:07:41.665Z,7.48
2023-04-12T00:12:50.184Z,7.48
2023-04-12T00:18:00.337Z,7.6
2023-04-12T00:23:09.826Z,7.6
2023-04-12T00:28:19.485Z,7.64
2023-04-12T00:33:29.210Z,7.64
2023-04-12T00:38:38.338Z,7.63
2023-04-12T00:43:46.803Z,7.63
2023-04-12T00:48:55.914Z,7.48
2023-04-12T00:54:04.436Z,7.48
2023-04-12T00:59:14.156Z,7.57
2023-04-12T01:04:22.649Z,7.57
2023-04-12T01:09:32.389Z,7.52
2023-04-12T01:14:40.868Z,7.52
2023-04-12T01:19:50.656Z,7.45
2023-04-12T01:25:00.402Z,7.45
2023-04-12T01:30:08.931Z,7.63
2023-04-12T01:35:18.184Z,7.63
2023-04-12T01:40:27.793Z,7.36
2023-04-12T01:45:38.545Z,7.36
2023-04-12T01:50:46.651Z,7.64
2023-04-12T01:55:55.764Z,7.64
2023-04-12T02:01:05.861Z,7.52
2023-04-12T02:06:15.297Z,7.52
2023-04-12T02:11:25.714Z,7.5
2023-04-12T02:16:35.145Z,7.5
2023-04-12T02:21:45.247Z,7.56
2023-04-12T02:26:55.248Z,7.56
2023-04-12T02:32:04.716Z,7.49
2023-04-12T02:37:14.487Z,7.49
2023-04-12T02:42:24.333Z,7.43
2023-04-12T02:47:34.203Z,7.43
2023-04-12T02:52:43.190Z,7.5
2023-04-12T02:57:52.258Z,7.5
2023-04-12T03:03:03.963Z,7.45
2023-04-12T03:08:10.512Z,7.48
2023-04-12T03:49:22.893Z,7.34
2023-04-12T03:54:32.662Z,7.34
2023-04-12T03:59:41.011Z,7.42
2023-04-12T04:04:49.714Z,7.42
2023-04-12T04:09:58.650Z,7.51
2023-04-12T04:15:07.756Z,7.51
2023-04-12T04:20:16.887Z,7.39
2023-04-12T04:25:26.668Z,7.39
2023-04-12T04:30:35.753Z,7.25
2023-04-12T04:35:45.938Z,7.25
2023-04-12T04:40:54.030Z,7.29
2023-04-12T04:46:03.478Z,7.29
2023-04-12T04:51:12.248Z,7.25
2023-04-12T04:56:22.012Z,7.25
2023-04-12T05:01:32.289Z,7.23
2023-04-12T05:06:41.522Z,7.23
2023-04-12T05:11:51.928Z,7.28
2023-04-12T05:17:01.062Z,7.28
2023-04-12T05:22:09.553Z,7.24
2023-04-12T05:27:17.999Z,7.24
2023-04-12T05:32:28.644Z,7.23
2023-04-12T05:37:36.852Z,7.23
2023-04-12T05:42:46.649Z,7.21
2023-04-12T05:47:56.353Z,7.21
2023-04-12T05:53:05.528Z,7.32
2023-04-12T05:58:13.985Z,7.32
2023-04-12T06:03:24.954Z,7.33
2023-04-12T06:08:36.854Z,7.33
2023-04-12T06:13:43.289Z,7.2
2023-04-12T06:18:52.422Z,7.21
2023-04-12T06:24:01.530Z,7.21
2023-04-12T06:29:10.660Z,7.19
2023-04-12T06:34:21.064Z,7.19
2023-04-12T06:39:29.541Z,7.23
2023-04-12T06:44:39.513Z,7.23
2023-04-12T07:30:59.553Z,7.22
2023-04-12T07:36:10.566Z,7.22
2023-04-12T07:41:18.973Z,7.19
2023-04-12T07:46:29.776Z,7.19
2023-04-12T07:51:38.505Z,7.24
2023-04-12T07:56:48.251Z,7.24
2023-04-12T08:01:58.215Z,7.23
2023-04-12T08:07:08.417Z,7.23
2023-04-12T08:12:17.527Z,7.26
2023-04-12T08:17:27.428Z,7.26
2023-04-12T08:22:37.050Z,7.22
2023-04-12T08:27:46.828Z,7.22
2023-04-12T08:32:56.783Z,7.24
2023-04-12T08:38:07.146Z,7.24
2023-04-12T08:43:16.685Z,7.25
2023-04-12T08:48:25.876Z,7.25
2023-04-12T08:53:34.342Z,7.26
2023-04-12T08:58:44.080Z,7.26
2023-04-12T09:03:56.125Z,7.26
2023-04-12T09:09:03.127Z,7.26
2023-04-12T09:14:13.425Z,7.28
2023-04-12T09:19:23.123Z,7.36
2023-04-12T09:24:32.893Z,7.36
2023-04-12T09:29:42.664Z,7.29
2023-04-12T09:34:51.968Z,7.29
2023-04-12T09:40:01.557Z,7.31
2023-04-12T09:45:12.049Z,7.31
2023-04-12T09:50:21.690Z,7.35
2023-04-12T09:55:31.578Z,7.35
2023-04-12T10:00:41.272Z,7.33
2023-04-12T10:05:51.744Z,7.33
2023-04-12T10:11:00.767Z,7.37
2023-04-12T10:16:09.465Z,7.37
2023-04-12T10:21:18.397Z,7.41
2023-04-12T10:26:26.797Z,7.41
2023-04-12T10:31:36.977Z,7.46
2023-04-12T10:36:45.113Z,7.46
2023-04-12T10:41:53.640Z,7.43
2023-04-12T11:28:35.767Z,7.46
2023-04-12T11:33:22.164Z,7.44
2023-04-12T11:38:30.676Z,7.44
2023-04-12T11:43:40.497Z,7.39
2023-04-12T11:48:49.592Z,7.39
2023-04-12T11:54:00.693Z,7.41
2023-04-12T11:59:07.775Z,7.41
2023-04-12T12:04:18.051Z,7.49
2023-04-12T12:09:24.775Z,7.49
2023-04-12T12:14:33.232Z,7.48
2023-04-12T12:31:43.270Z,7.57
2023-04-12T12:36:47.748Z,7.57
2023-04-12T12:41:56.776Z,7.68
2023-04-12T12:47:15.398Z,7.68
2023-04-12T12:52:18.265Z,7.72
2023-04-12T12:57:25.468Z,7.72
2023-04-12T13:02:35.332Z,7.65
2023-04-12T13:07:42.326Z,7.65
2023-04-12T13:12:51.557Z,7.71
2023-04-12T13:18:01.536Z,7.71
2023-04-12T13:23:10.303Z,7.59
2023-04-12T13:28:19.492Z,7.59
2023-04-12T13:33:29.241Z,7.87
2023-04-12T13:38:37.684Z,7.87
2023-04-12T13:43:46.807Z,7.78
2023-04-12T13:48:57.390Z,7.78
2023-04-12T13:54:05.052Z,7.82
2023-04-12T13:59:14.205Z,7.82
2023-04-12T14:04:23.183Z,7.77
2023-04-12T14:09:32.479Z,7.77
2023-04-12T14:14:41.599Z,7.95
2023-04-12T14:19:50.644Z,7.95
2023-04-12T14:25:00.457Z,7.98
2023-04-12T14:30:10.198Z,7.98
2023-04-12T14:35:18.688Z,7.84
2023-04-12T14:40:28.414Z,7.84
2023-04-12T14:45:36.914Z,7.74
2023-04-12T14:50:46.679Z,8.21
2023-04-12T14:55:56.410Z,8.21
2023-04-12T15:01:05.534Z,7.96
2023-04-12T15:06:14.649Z,7.96
2023-04-12T15:11:25.346Z,7.74
2023-04-12T15:16:35.808Z,7.74
2023-04-12T15:21:45.171Z,8.11
2023-04-12T15:26:53.508Z,8.11
2023-04-12T15:32:03.307Z,7.93
2023-04-12T16:18:23.070Z,7.77
2023-04-12T16:23:31.476Z,7.79
2023-04-12T16:28:40.560Z,7.79
2023-04-12T16:34:12.204Z,7.62
2023-04-12T16:39:21.872Z,7.62
2023-04-12T16:44:32.263Z,7.46
2023-04-12T16:49:41.989Z,7.46
2023-04-12T16:54:51.145Z,7.41
2023-04-12T17:00:00.289Z,7.41
2023-04-12T17:05:09.391Z,7.37
2023-04-12T17:10:18.545Z,7.37
2023-04-12T17:15:27.069Z,7.5
2023-04-12T17:20:38.836Z,7.5
2023-04-12T17:25:49.133Z,7.35
2023-04-12T17:30:58.144Z,7.35
2023-04-12T17:36:12.225Z,7.26
2023-04-12T17:41:17.047Z,7.3
2023-04-12T17:46:27.810Z,7.3
2023-04-12T17:51:37.849Z,7.22
2023-04-12T17:56:46.979Z,7.22
2023-04-12T18:01:56.253Z,7.22
2023-04-12T18:07:05.844Z,7.22
2023-04-12T18:12:15.659Z,7.25
2023-04-12T18:17:27.435Z,7.25
2023-04-12T18:22:34.516Z,7.31
2023-04-12T18:27:44.873Z,7.31
2023-04-12T18:32:54.991Z,7.27
2023-04-12T18:38:03.113Z,7.27
2023-04-12T18:43:13.849Z,7.26
2023-04-12T18:48:25.230Z,7.26
2023-04-12T18:53:35.602Z,7.23
2023-04-12T18:58:56.655Z,7.23
2023-04-12T19:03:54.741Z,7.24
2023-04-12T19:09:02.960Z,7.24
2023-04-12T19:14:12.715Z,7.38
2023-04-12T19:19:21.197Z,7.38
2023-04-12T19:24:31.763Z,7.46
2023-04-12T19:29:40.706Z,7.46
2023-04-12T19:34:49.866Z,7.35
2023-04-12T19:40:00.361Z,7.35
2023-04-12T19:45:09.414Z,7.33
2023-04-12T20:41:58.758Z,7.18
2023-04-12T20:47:09.094Z,7.18
2023-04-12T20:52:18.946Z,7.16
2023-04-12T20:57:31.131Z,7.16
2023-04-12T21:02:41.351Z,7.12
2023-04-12T21:07:49.999Z,7.12
2023-04-12T21:12:59.747Z,7.09
